createdAt,value
2019-04-22T00:01:50.277Z,5.58
2019-04-22T00:04:33.767Z,5.22
2019-04-22T00:07:17.435Z,5.70
2019-04-22T00:09:53.085Z,5.20
2019-04-22T00:12:19.557Z,5.03
2019-04-22T00:14:46.544Z,5.55
2019-04-22T00:17:35.544Z,5.67
2019-04-22T00:20:00.391Z,5.35
2019-04-22T00:22:44.693Z,5.12
2019-04-22T00:25:01.127Z,5.28
2019-04-22T00:27:30.879Z,5.47
2019-04-22T00:30:11.871Z,5.60
2019-04-22T00:32:39.560Z,5.40
2019-04-22T00:35:07.110Z,5.12
2019-04-22T00:37:43.141Z,4.85
2019-04-22T00:40:14.877Z,4.95
2019-04-22T00:42:48.803Z,5.72
2019-04-22T00:45:21.887Z,4.70
2019-04-22T00:47:45.658Z,5.05
2019-04-22T00:50:18.979Z,4.90
2019-04-22T00:52:50.862Z,4.58
2019-04-22T00:55:18.197Z,5.05
2019-04-22T00:57:58.080Z,4.80
2019-04-22T01:00:25.093Z,5.42
2019-04-22T01:02:54.325Z,4.40
2019-04-22T01:05:27.315Z,4.60
2019-04-22T01:08:04.231Z,5.67
2019-04-22T01:12:57.223Z,5.20
2019-04-22T01:15:28.828Z,5.03
2019-04-22T01:17:57.615Z,5.00
2019-04-22T01:20:58.857Z,5.00
2019-04-22T01:22:58.913Z,5.35
2019-04-22T01:25:34.470Z,4.90
2019-04-22T01:27:58.262Z,5.42
2019-04-22T01:30:23.262Z,6.40
2019-04-22T01:32:47.287Z,5.80
2019-04-22T01:35:31.155Z,6.20
2019-04-22T01:38:03.248Z,7.72
2019-04-22T01:40:45.239Z,6.67
2019-04-22T01:43:20.218Z,6.42
2019-04-22T01:45:48.018Z,7.30
2019-04-22T01:48:17.640Z,8.70
2019-04-22T01:50:46.200Z,7.03
2019-04-22T01:53:22.253Z,7.50
2019-04-22T01:55:50.037Z,9.20
2019-04-22T01:58:20.425Z,9.35
2019-04-22T02:00:53.453Z,9.63
2019-04-22T02:03:22.320Z,10.15
2019-04-22T02:05:51.071Z,10.20
2019-04-22T02:08:31.208Z,9.45
2019-04-22T02:10:54.953Z,9.33
2019-04-22T02:13:29.002Z,9.35
2019-04-22T02:16:01.925Z,9.43
2019-04-22T02:18:36.217Z,10.95
2019-04-22T02:21:01.725Z,9.95
2019-04-22T02:28:40.006Z,11.22
2019-04-22T02:34:05.381Z,11.55
2019-04-22T02:36:30.177Z,13.35
2019-04-22T02:44:04.101Z,12.07
2019-04-22T02:46:41.208Z,10.25
2019-04-22T02:49:04.137Z,10.65
2019-04-22T02:59:03.864Z,11.60
2019-04-22T03:04:10.972Z,10.18
2019-04-22T03:09:03.809Z,9.68
2019-04-22T03:11:34.251Z,10.18
2019-04-22T03:16:38.353Z,9.73
2019-04-22T03:21:33.974Z,9.50
2019-04-22T03:24:17.917Z,10.13
2019-04-22T03:29:04.647Z,10.05
2019-04-22T03:32:33.485Z,9.38
2019-04-22T03:39:45.568Z,9.58
2019-04-22T03:44:49.650Z,9.93
2019-04-22T03:52:11.538Z,9.25
2019-04-22T03:54:49.453Z,9.73
2019-04-22T03:59:48.516Z,9.63
2019-04-22T04:02:21.474Z,9.00
2019-04-22T04:04:45.287Z,8.95
2019-04-22T04:07:31.028Z,8.58
2019-04-22T04:09:54.010Z,9.10
2019-04-22T04:14:53.967Z,8.50
2019-04-22T04:17:20.798Z,8.70
2019-04-22T04:20:10.781Z,9.25
2019-04-22T04:22:43.031Z,8.50
2019-04-22T04:25:08.196Z,8.05
2019-04-22T04:27:50.667Z,8.35
2019-04-22T04:45:33.444Z,7.80
2019-04-22T04:50:06.836Z,7.95
2019-04-22T04:52:50.856Z,7.80
2019-04-22T04:58:10.001Z,7.72
2019-04-22T05:02:46.756Z,8.78
2019-04-22T05:05:28.818Z,8.40
2019-04-22T05:10:31.471Z,7.40
2019-04-22T05:15:21.158Z,6.28
2019-04-22T05:17:55.533Z,6.00
2019-04-22T05:22:44.743Z,5.12
2019-04-22T05:25:19.535Z,5.20
2019-04-22T05:27:55.611Z,4.67
2019-04-22T05:30:26.740Z,4.80
2019-04-22T05:32:52.234Z,4.67
2019-04-22T05:37:58.115Z,5.03
2019-04-22T05:40:24.360Z,4.58
2019-04-22T05:42:56.443Z,4.60
2019-04-22T05:45:28.191Z,4.78
2019-04-22T05:47:57.841Z,4.47
2019-04-22T05:50:22.882Z,4.50
2019-04-22T05:53:00.751Z,3.70
2019-04-22T05:58:02.882Z,3.20
2019-04-22T06:00:40.544Z,3.72
2019-04-22T06:03:06.426Z,3.47
2019-04-22T06:05:35.752Z,3.77
2019-04-22T06:08:04.221Z,4.20
2019-04-22T06:10:51.956Z,4.67
2019-04-22T06:13:06.592Z,4.87
2019-04-22T06:15:52.930Z,4.50
2019-04-22T06:20:49.783Z,3.95
2019-04-22T06:23:18.748Z,4.45
2019-04-22T06:25:58.967Z,4.40
2019-04-22T06:28:29.010Z,4.33
2019-04-22T06:30:53.890Z,4.30
2019-04-22T06:33:20.708Z,4.00
2019-04-22T06:40:54.031Z,4.35
2019-04-22T06:43:22.410Z,3.85
2019-04-22T06:45:53.077Z,4.20
2019-04-22T06:51:15.285Z,3.85
2019-04-22T06:53:31.148Z,4.37
2019-04-22T06:55:59.737Z,3.80
2019-04-22T06:58:33.379Z,3.80
2019-04-22T07:01:05.914Z,4.25
2019-04-22T07:06:12.662Z,4.50
2019-04-22T07:11:04.509Z,5.12
2019-04-22T07:13:43.420Z,4.35
2019-04-22T07:16:13.259Z,4.28
2019-04-22T07:18:45.314Z,4.50
2019-04-22T07:21:27.725Z,4.65
2019-04-22T07:23:55.575Z,3.85
2019-04-22T07:26:18.961Z,5.00
2019-04-22T07:28:47.002Z,4.35
2019-04-22T07:31:15.794Z,3.55
2019-04-22T07:34:08.067Z,3.87
2019-04-22T07:36:37.782Z,3.90
2019-04-22T07:38:45.597Z,4.07
2019-04-22T07:41:20.021Z,3.60
2019-04-22T07:44:07.357Z,3.80
2019-04-22T07:46:31.460Z,4.03
2019-04-22T07:49:10.585Z,3.50
2019-04-22T07:51:32.880Z,3.25
2019-04-22T07:53:56.920Z,3.50
2019-04-22T07:56:32.612Z,3.25
2019-04-22T07:59:05.732Z,3.12
2019-04-22T08:01:32.347Z,3.60
2019-04-22T08:04:07.212Z,3.15
2019-04-22T08:06:52.256Z,2.58
2019-04-22T08:09:12.184Z,3.08
2019-04-22T08:14:07.612Z,3.10
2019-04-22T08:16:38.551Z,2.70
2019-04-22T08:19:15.843Z,3.20
2019-04-22T08:21:47.392Z,3.00
2019-04-22T08:24:29.381Z,2.85
2019-04-22T08:26:51.971Z,3.15
2019-04-22T08:29:21.458Z,2.92
2019-04-22T08:31:49.662Z,2.72
2019-04-22T08:34:29.593Z,2.58
2019-04-22T08:39:21.766Z,2.80
2019-04-22T08:41:43.421Z,1.98
2019-04-22T08:44:27.826Z,2.65
2019-04-22T08:46:56.207Z,2.55
2019-04-22T08:49:23.215Z,2.40
2019-04-22T08:51:56.552Z,2.08
2019-04-22T08:54:26.052Z,2.40
2019-04-22T08:56:57.164Z,2.30
2019-04-22T08:59:22.137Z,2.30
2019-04-22T09:02:02.730Z,2.40
2019-04-22T09:04:27.589Z,2.22
2019-04-22T09:07:21.171Z,2.42
2019-04-22T09:09:31.197Z,2.77
2019-04-22T09:14:40.507Z,2.15
2019-04-22T09:17:10.385Z,1.77
2019-04-22T09:19:38.483Z,2.02
2019-04-22T09:22:12.263Z,2.00
2019-04-22T09:24:41.820Z,2.62
2019-04-22T09:27:18.109Z,2.10
2019-04-22T09:32:21.623Z,1.95
2019-04-22T09:34:59.002Z,2.30
2019-04-22T09:37:14.365Z,2.50
2019-04-22T09:39:51.985Z,2.40
2019-04-22T09:42:17.336Z,2.27
2019-04-22T09:44:47.852Z,2.08
2019-04-22T09:47:21.131Z,1.95
2019-04-22T09:49:54.918Z,2.00
2019-04-22T09:52:22.161Z,2.12
2019-04-22T09:54:59.602Z,2.33
2019-04-22T09:57:24.511Z,2.20
2019-04-22T10:05:00.182Z,2.17
2019-04-22T10:07:31.867Z,2.10
2019-04-22T10:10:14.135Z,1.98
2019-04-22T10:15:14.997Z,2.45
2019-04-22T10:17:32.226Z,2.40
2019-04-22T10:20:07.152Z,3.08
2019-04-22T10:22:42.522Z,3.35
2019-04-22T10:25:08.707Z,3.20
2019-04-22T10:27:40.051Z,3.00
2019-04-22T10:32:38.040Z,3.47
2019-04-22T10:35:11.136Z,3.15
2019-04-22T10:37:38.662Z,3.35
2019-04-22T10:40:11.376Z,3.85
2019-04-22T10:42:43.187Z,3.58
2019-04-22T10:45:14.341Z,3.50
2019-04-22T10:47:43.901Z,3.70
2019-04-22T10:50:14.425Z,3.70
2019-04-22T10:52:43.935Z,3.60
2019-04-22T10:55:13.822Z,3.40
2019-04-22T10:57:44.425Z,3.77
2019-04-22T11:00:15.460Z,3.85
2019-04-22T11:02:45.691Z,3.30
2019-04-22T11:05:16.499Z,3.90
2019-04-22T11:07:53.260Z,3.67
2019-04-22T11:10:34.610Z,3.87
2019-04-22T11:12:49.294Z,4.00
2019-04-22T11:15:18.817Z,3.98
2019-04-22T11:17:49.511Z,3.80
2019-04-22T11:20:19.880Z,3.98
2019-04-22T11:22:50.940Z,3.42
2019-04-22T11:25:21.638Z,4.05
2019-04-22T11:27:51.446Z,3.75
2019-04-22T11:30:23.827Z,3.85
2019-04-22T11:32:52.014Z,3.85
2019-04-22T11:35:21.904Z,4.10
2019-04-22T11:37:52.743Z,3.70
2019-04-22T11:40:28.805Z,3.75
2019-04-22T11:42:54.426Z,3.83
2019-04-22T11:45:24.218Z,4.05
2019-04-22T11:47:55.165Z,4.15
2019-04-22T11:50:26.062Z,4.35
2019-04-22T11:52:55.655Z,4.25
2019-04-22T11:55:26.684Z,3.85
2019-04-22T11:57:56.470Z,4.00
2019-04-22T12:00:30.893Z,4.10
2019-04-22T12:03:00.844Z,3.80
2019-04-22T12:05:30.300Z,3.87
2019-04-22T12:07:59.699Z,3.65
2019-04-22T12:10:38.918Z,3.70
2019-04-22T12:13:02.113Z,4.00
2019-04-22T12:15:32.906Z,4.60
2019-04-22T12:18:03.684Z,4.08
2019-04-22T12:20:33.143Z,3.85
2019-04-22T12:23:03.228Z,3.70
2019-04-22T12:25:43.423Z,3.90
2019-04-22T12:28:05.222Z,4.40
2019-04-22T12:30:35.224Z,3.95
2019-04-22T12:33:07.392Z,4.10
2019-04-22T12:35:36.933Z,4.12
2019-04-22T12:38:08.754Z,4.12
2019-04-22T12:40:46.752Z,4.33
2019-04-22T12:43:11.966Z,4.00
2019-04-22T12:45:40.339Z,4.17
2019-04-22T12:48:10.102Z,4.12
2019-04-22T12:50:43.424Z,3.87
2019-04-22T12:53:15.910Z,4.05
2019-04-22T12:55:42.188Z,3.52
2019-04-22T12:58:11.902Z,3.90
2019-04-22T13:00:42.802Z,4.08
2019-04-22T13:03:13.704Z,4.08
2019-04-22T13:05:43.256Z,4.12
2019-04-22T13:08:13.929Z,3.47
2019-04-22T13:10:53.405Z,3.52
2019-04-22T13:13:15.423Z,3.22
2019-04-22T13:15:44.895Z,4.15
2019-04-22T13:18:23.883Z,4.35
2019-04-22T13:20:46.336Z,3.00
2019-04-22T13:23:15.846Z,3.12
2019-04-22T13:25:45.317Z,3.20
2019-04-22T13:28:15.478Z,3.00
2019-04-22T13:30:46.435Z,3.27
2019-04-22T13:33:16.857Z,3.20
2019-04-22T13:35:47.791Z,2.80
2019-04-22T13:38:17.497Z,2.90
2019-04-22T13:43:18.772Z,2.75
2019-04-22T13:45:49.780Z,2.50
2019-04-22T13:51:26.194Z,2.80
2019-04-22T13:54:00.252Z,2.70
2019-04-22T13:54:14.016Z,2.80
2019-04-22T13:54:14.469Z,2.50
2019-04-22T13:56:12.530Z,2.45
2019-04-22T13:58:37.008Z,2.60
2019-04-22T14:00:58.837Z,2.30
2019-04-22T14:03:46.884Z,2.58
2019-04-22T14:06:16.596Z,2.30
2019-04-22T14:08:47.177Z,2.62
2019-04-22T14:11:30.062Z,2.33
2019-04-22T14:13:48.044Z,1.95
2019-04-22T14:16:17.453Z,2.15
2019-04-22T14:18:47.755Z,2.65
2019-04-22T14:21:18.462Z,2.52
2019-04-22T14:23:48.687Z,2.10
2019-04-22T14:26:19.524Z,2.42
2019-04-22T14:28:50.049Z,2.35
2019-04-22T14:31:20.398Z,2.10
2019-04-22T14:33:55.099Z,2.05
2019-04-22T14:36:21.430Z,2.00
2019-04-22T14:38:52.307Z,2.17
2019-04-22T14:41:40.634Z,2.30
2019-04-22T14:45:05.122Z,2.30
2019-04-22T14:46:58.755Z,2.20
2019-04-22T14:49:17.827Z,2.02
2019-04-22T14:51:51.172Z,1.75
2019-04-22T14:54:13.755Z,1.80
2019-04-22T14:56:28.772Z,2.00
2019-04-22T14:58:58.800Z,2.10
2019-04-22T15:01:28.781Z,1.70
2019-04-22T15:03:58.810Z,1.70
2019-04-22T15:06:28.545Z,1.80
2019-04-22T15:08:59.577Z,1.65
2019-04-22T15:11:41.297Z,2.17
2019-04-22T15:14:01.294Z,1.98
2019-04-22T15:17:06.896Z,1.75
2019-04-22T15:19:40.342Z,1.62
2019-04-22T15:22:10.419Z,2.05
2019-04-22T15:24:40.690Z,2.00
2019-04-22T15:27:10.650Z,2.02
2019-04-22T15:29:41.181Z,1.80
2019-04-22T15:32:11.746Z,1.52
2019-04-22T15:34:41.539Z,1.85
2019-04-22T15:37:11.942Z,1.57
2019-04-22T15:39:41.597Z,1.72
2019-04-22T15:42:19.711Z,1.50
2019-04-22T15:44:42.332Z,1.47
2019-04-22T15:47:13.063Z,1.50
2019-04-22T15:49:42.629Z,1.42
2019-04-22T15:52:12.516Z,1.60
2019-04-22T15:54:43.614Z,1.85
2019-04-22T15:57:14.832Z,1.92
2019-04-22T15:59:59.321Z,1.85
2019-04-22T16:02:16.031Z,1.90
2019-04-22T16:04:46.535Z,1.77
2019-04-22T16:07:17.093Z,1.70
2019-04-22T16:09:47.843Z,1.80
2019-04-22T16:12:26.156Z,1.57
2019-04-22T16:14:53.535Z,1.62
2019-04-22T16:17:19.642Z,1.35
2019-04-22T16:19:49.113Z,1.50
2019-04-22T16:22:21.213Z,1.90
2019-04-22T16:25:07.110Z,1.62
2019-04-22T16:27:36.506Z,1.62
2019-04-22T16:30:07.519Z,1.92
2019-04-22T16:32:37.165Z,1.77
2019-04-22T16:35:08.490Z,1.72
2019-04-22T16:37:38.953Z,1.65
2019-04-22T16:40:09.312Z,1.40
2019-04-22T16:42:45.861Z,2.00
2019-04-22T16:45:11.525Z,1.57
2019-04-22T16:47:41.818Z,1.70
2019-04-22T16:50:11.575Z,2.10
2019-04-22T16:52:41.813Z,2.52
2019-04-22T16:55:12.718Z,2.65
2019-04-22T16:57:42.295Z,3.15
2019-04-22T17:00:13.112Z,2.72
2019-04-22T17:03:00.721Z,3.35
2019-04-22T17:05:55.850Z,3.20
2019-04-22T17:08:26.607Z,3.00
2019-04-22T17:10:56.101Z,3.42
2019-04-22T17:13:29.118Z,2.62
2019-04-22T17:15:59.063Z,2.98
2019-04-22T17:18:27.831Z,2.83
2019-04-22T17:20:58.488Z,4.03
2019-04-22T17:23:29.563Z,6.08
2019-04-22T17:25:59.084Z,4.92
2019-04-22T17:28:28.521Z,4.17
2019-04-22T17:30:59.408Z,4.00
2019-04-22T17:33:28.912Z,4.60
2019-04-22T17:35:59.128Z,5.60
2019-04-22T17:38:37.169Z,8.88
2019-04-22T17:41:11.567Z,6.30
2019-04-22T17:43:54.166Z,6.95
2019-04-22T17:46:24.737Z,8.63
2019-04-22T17:49:12.160Z,8.68
2019-04-22T17:51:50.308Z,9.03
2019-04-22T17:54:15.295Z,8.83
2019-04-22T17:56:47.184Z,8.45
2019-04-22T17:59:17.165Z,8.33
2019-04-22T18:01:43.393Z,7.75
2019-04-22T18:04:00.562Z,7.72
2019-04-22T18:06:58.232Z,7.83
2019-04-22T18:09:19.359Z,7.87
2019-04-22T18:11:51.131Z,7.65
2019-04-22T18:14:35.106Z,8.38
2019-04-22T18:16:52.118Z,7.92
2019-04-22T18:19:19.343Z,7.78
2019-04-22T18:21:50.033Z,7.97
2019-04-22T18:24:13.628Z,7.42
2019-04-22T18:27:01.914Z,7.85
2019-04-22T18:29:29.859Z,7.53
2019-04-22T18:31:49.030Z,7.50
2019-04-22T18:34:23.428Z,7.10
2019-04-22T18:36:58.931Z,7.62
2019-04-22T18:39:36.369Z,7.55
2019-04-22T18:42:02.581Z,6.85
2019-04-22T18:44:35.112Z,7.25
2019-04-22T18:47:03.816Z,6.95
2019-04-22T18:49:40.579Z,7.30
2019-04-22T18:52:24.646Z,7.30
2019-04-22T18:55:08.571Z,7.03
2019-04-22T18:57:53.447Z,7.00
2019-04-22T19:00:12.332Z,7.45
2019-04-22T19:02:51.955Z,7.42
2019-04-22T19:05:26.505Z,7.00
2019-04-22T19:08:13.312Z,7.33
2019-04-22T19:10:56.180Z,7.40
2019-04-22T19:13:36.375Z,7.58
2019-04-22T19:15:52.774Z,7.33
2019-04-22T19:18:22.153Z,7.35
2019-04-22T19:20:42.631Z,7.08
2019-04-22T19:23:19.342Z,6.75
2019-04-22T19:25:43.765Z,6.97
2019-04-22T19:28:27.152Z,6.97
2019-04-22T19:30:50.905Z,6.70
2019-04-22T19:33:27.294Z,6.78
2019-04-22T19:35:49.120Z,6.67
2019-04-22T19:38:14.088Z,6.62
2019-04-22T19:41:03.402Z,6.78
2019-04-22T19:43:30.889Z,6.80
2019-04-22T19:45:53.681Z,6.87
2019-04-22T19:48:37.379Z,6.40
2019-04-22T19:51:05.937Z,6.58
2019-04-22T19:53:35.561Z,6.47
2019-04-22T19:55:53.782Z,6.97
2019-04-22T19:58:32.473Z,6.17
2019-04-22T20:01:25.485Z,6.45
2019-04-22T20:04:13.594Z,6.70
2019-04-22T20:06:38.139Z,7.25
2019-04-22T20:09:18.162Z,5.87
2019-04-22T20:11:40.891Z,6.08
2019-04-22T20:14:12.858Z,6.10
2019-04-22T20:16:41.257Z,5.78
2019-04-22T20:19:23.579Z,6.03
2019-04-22T20:21:50.054Z,6.42
2019-04-22T20:24:05.466Z,6.25
2019-04-22T20:26:49.907Z,6.50
2019-04-22T20:29:25.742Z,6.10
2019-04-22T20:31:54.408Z,5.83
2019-04-22T20:34:26.636Z,5.85
2019-04-22T20:37:03.798Z,6.25
2019-04-22T20:39:31.916Z,5.78
2019-04-22T20:42:03.118Z,6.05
2019-04-22T20:44:29.250Z,6.10
2019-04-22T20:46:58.316Z,6.12
2019-04-22T20:49:31.756Z,5.58
2019-04-22T20:52:20.805Z,5.65
2019-04-22T20:54:28.425Z,5.40
2019-04-22T20:56:55.004Z,5.37
2019-04-22T20:59:27.177Z,5.30
2019-04-22T21:02:03.664Z,5.40
2019-04-22T21:04:26.072Z,5.22
2019-04-22T21:07:02.279Z,5.90
2019-04-22T21:09:36.674Z,5.85
2019-04-22T21:12:02.648Z,5.53
2019-04-22T21:14:32.413Z,6.30
2019-04-22T21:17:13.779Z,5.75
2019-04-22T21:19:49.773Z,5.78
2019-04-22T21:22:14.648Z,5.78
2019-04-22T21:24:45.976Z,6.10
2019-04-22T21:27:20.910Z,5.72
2019-04-22T21:29:44.832Z,5.10
2019-04-22T21:32:17.620Z,5.00
2019-04-22T21:34:55.421Z,5.00
2019-04-22T21:37:26.826Z,5.65
2019-04-22T21:39:49.638Z,5.20
2019-04-22T21:42:19.667Z,5.58
2019-04-22T21:44:52.722Z,5.12
2019-04-22T21:47:33.199Z,5.62
2019-04-22T21:50:17.991Z,5.25
2019-04-22T21:52:27.806Z,5.62
2019-04-22T21:55:08.274Z,5.08
2019-04-22T21:57:40.009Z,4.97
2019-04-22T22:00:25.233Z,5.00
2019-04-22T22:02:45.796Z,5.03
2019-04-22T22:05:11.241Z,4.85
2019-04-22T22:07:29.126Z,4.55
2019-04-22T22:10:16.294Z,4.83
2019-04-22T22:12:52.122Z,5.20
2019-04-22T22:15:22.691Z,4.67
2019-04-22T22:17:48.682Z,5.25
2019-04-22T22:20:17.277Z,5.17
2019-04-22T22:22:59.994Z,4.92
2019-04-22T22:25:26.464Z,5.08
2019-04-22T22:27:47.568Z,4.72
2019-04-22T22:30:41.572Z,4.87
2019-04-22T22:33:04.341Z,5.05
2019-04-22T22:35:29.688Z,4.92
2019-04-22T22:37:55.227Z,5.00
2019-04-22T22:40:18.146Z,5.28
2019-04-22T22:42:47.969Z,4.95
2019-04-22T22:45:26.323Z,4.90
2019-04-22T22:48:14.842Z,5.10
2019-04-22T22:50:40.303Z,4.60
2019-04-22T22:55:41.350Z,4.97
2019-04-22T22:58:21.247Z,4.42
2019-04-22T23:00:39.405Z,4.92
2019-04-22T23:05:54.861Z,4.90
2019-04-22T23:08:22.827Z,4.95
2019-04-22T23:10:57.430Z,4.75
2019-04-22T23:13:21.561Z,4.72
2019-04-22T23:15:46.654Z,4.50
2019-04-22T23:18:01.686Z,4.60
2019-04-22T23:20:37.449Z,4.42
2019-04-22T23:23:22.469Z,4.28
2019-04-22T23:25:57.571Z,3.98
2019-04-22T23:28:37.278Z,4.28
2019-04-22T23:31:23.726Z,4.62
2019-04-22T23:34:07.916Z,4.28
2019-04-22T23:36:54.203Z,4.42
2019-04-22T23:39:22.710Z,4.17
2019-04-22T23:41:58.691Z,4.70
2019-04-22T23:44:27.507Z,4.67
2019-04-22T23:46:59.820Z,4.55
2019-04-22T23:49:29.716Z,4.45
2019-04-22T23:52:09.043Z,4.50
2019-04-22T23:54:49.158Z,4.30
2019-04-22T23:57:08.361Z,4.15
2019-04-22T23:59:49.299Z,4.37
